createdAt,value
2023-08-15T00:02:29.162Z,18.10
2023-08-15T00:05:17.270Z,18.10
2023-08-15T00:08:04.817Z,18.10
2023-08-15T00:10:51.555Z,18.10
2023-08-15T00:13:38.456Z,18.10
2023-08-15T00:16:25.718Z,18.00
2023-08-15T00:19:12.547Z,18.00
2023-08-15T00:22:00.707Z,17.90
2023-08-15T00:24:47.550Z,17.90
2023-08-15T00:27:34.141Z,17.90
2023-08-15T00:30:21.179Z,17.90
2023-08-15T00:33:07.660Z,17.80
2023-08-15T00:35:54.284Z,17.80
2023-08-15T00:38:42.248Z,17.70
2023-08-15T00:41:29.036Z,17.80
2023-08-15T00:44:15.553Z,17.80
2023-08-15T00:47:02.512Z,17.80
2023-08-15T00:49:49.537Z,17.90
2023-08-15T00:52:36.593Z,17.90
2023-08-15T00:55:25.272Z,17.90
2023-08-15T00:58:12.379Z,18.00
2023-08-15T01:00:59.391Z,18.00
2023-08-15T01:03:48.172Z,18.00
2023-08-15T01:06:35.070Z,18.00
2023-08-15T01:09:21.602Z,18.00
2023-08-15T01:12:19.041Z,18.00
2023-08-15T01:15:11.213Z,18.00
2023-08-15T01:18:04.970Z,17.90
2023-08-15T01:20:52.798Z,17.90
2023-08-15T01:23:44.119Z,17.80
2023-08-15T01:26:30.834Z,17.70
2023-08-15T01:29:17.415Z,17.70
2023-08-15T01:32:16.571Z,17.60
2023-08-15T01:35:14.070Z,17.60
2023-08-15T01:38:06.545Z,17.50
2023-08-15T01:40:57.736Z,17.50
2023-08-15T01:43:46.392Z,17.40
2023-08-15T01:46:33.566Z,17.40
2023-08-15T01:49:20.302Z,17.40
2023-08-15T01:52:07.259Z,17.30
2023-08-15T01:54:53.843Z,17.30
2023-08-15T01:57:41.710Z,17.20
2023-08-15T02:00:28.423Z,17.20
2023-08-15T02:03:15.250Z,17.10
2023-08-15T02:06:01.901Z,17.00
2023-08-15T02:08:48.799Z,17.00
2023-08-15T02:11:35.511Z,17.00
2023-08-15T02:14:23.356Z,17.00
2023-08-15T02:17:10.217Z,17.00
2023-08-15T02:19:57.364Z,16.90
2023-08-15T02:22:44.460Z,16.90
2023-08-15T02:25:31.064Z,16.90
2023-08-15T02:28:17.538Z,16.80
2023-08-15T02:31:06.576Z,16.80
2023-08-15T02:33:53.285Z,16.80
2023-08-15T02:36:39.804Z,16.80
2023-08-15T02:39:26.521Z,16.80
2023-08-15T02:42:13.100Z,16.80
2023-08-15T02:44:59.660Z,16.80
2023-08-15T02:47:47.680Z,16.80
2023-08-15T02:50:34.377Z,16.80
2023-08-15T02:53:21.252Z,16.70
2023-08-15T02:56:08.131Z,16.70
2023-08-15T02:58:55.376Z,16.70
2023-08-15T03:01:42.138Z,16.70
2023-08-15T03:04:30.001Z,16.70
2023-08-15T03:07:17.298Z,16.70
2023-08-15T03:10:04.615Z,16.60
2023-08-15T03:12:51.151Z,16.50
2023-08-15T03:15:38.786Z,16.50
2023-08-15T03:18:25.785Z,16.50
2023-08-15T03:21:14.152Z,16.40
2023-08-15T03:24:01.030Z,16.40
2023-08-15T03:26:47.704Z,16.40
2023-08-15T03:29:35.987Z,16.40
2023-08-15T03:32:22.584Z,16.30
2023-08-15T03:35:09.800Z,16.30
2023-08-15T03:37:57.874Z,16.20
2023-08-15T03:40:45.026Z,16.30
2023-08-15T03:43:31.897Z,16.30
2023-08-15T03:46:20.183Z,16.30
2023-08-15T03:49:07.177Z,16.30
2023-08-15T03:51:53.843Z,16.40
2023-08-15T03:54:41.618Z,16.30
2023-08-15T03:57:28.468Z,16.30
2023-08-15T04:00:16.011Z,16.40
2023-08-15T04:03:02.947Z,16.50
2023-08-15T04:05:50.650Z,16.50
2023-08-15T04:08:37.527Z,16.50
2023-08-15T04:11:25.398Z,16.50
2023-08-15T04:14:12.454Z,16.60
2023-08-15T04:16:59.255Z,16.60
2023-08-15T04:19:45.998Z,16.70
2023-08-15T04:22:32.711Z,16.60
2023-08-15T04:25:19.884Z,16.70
2023-08-15T04:28:08.827Z,16.70
2023-08-15T04:30:55.616Z,16.70
2023-08-15T04:33:42.076Z,16.80
2023-08-15T04:36:28.743Z,16.80
2023-08-15T04:39:17.671Z,16.80
2023-08-15T04:42:04.176Z,16.80
2023-08-15T04:44:52.088Z,16.80
2023-08-15T04:47:39.056Z,16.90
2023-08-15T04:50:26.374Z,16.90
2023-08-15T04:53:13.154Z,16.90
2023-08-15T04:56:00.174Z,16.90
2023-08-15T04:58:46.980Z,16.90
2023-08-15T05:01:34.806Z,16.90
2023-08-15T05:04:21.361Z,16.90
2023-08-15T05:07:08.043Z,16.90
2023-08-15T05:09:54.570Z,16.90
2023-08-15T05:12:41.184Z,17.00
2023-08-15T05:15:29.088Z,17.00
2023-08-15T05:18:18.481Z,17.10
2023-08-15T05:21:05.370Z,17.10
2023-08-15T05:23:52.177Z,17.20
2023-08-15T05:26:38.587Z,17.20
2023-08-15T05:29:25.595Z,17.30
2023-08-15T05:32:12.685Z,17.30
2023-08-15T05:35:00.845Z,17.30
2023-08-15T05:37:47.642Z,17.40
2023-08-15T05:40:34.833Z,17.40
2023-08-15T05:43:21.986Z,17.40
2023-08-15T05:46:08.772Z,17.50
2023-08-15T05:48:55.322Z,17.50
2023-08-15T05:51:43.411Z,17.50
2023-08-15T05:54:30.216Z,17.60
2023-08-15T05:57:16.817Z,17.60
2023-08-15T06:00:04.559Z,17.70
2023-08-15T06:02:55.547Z,17.80
2023-08-15T06:05:42.255Z,17.80
2023-08-15T06:08:30.176Z,17.90
2023-08-15T06:11:17.369Z,18.00
2023-08-15T06:14:04.502Z,18.10
2023-08-15T06:16:51.683Z,18.20
2023-08-15T06:19:38.197Z,18.20
2023-08-15T06:22:24.763Z,18.30
2023-08-15T06:25:12.926Z,18.50
2023-08-15T06:27:59.899Z,18.50
2023-08-15T06:30:46.691Z,18.70
2023-08-15T06:33:33.194Z,18.70
2023-08-15T06:36:23.183Z,18.80
2023-08-15T06:39:10.337Z,18.90
2023-08-15T06:42:00.242Z,19.10
2023-08-15T06:44:46.901Z,19.30
2023-08-15T06:47:33.583Z,19.80
2023-08-15T06:50:20.578Z,20.60
2023-08-15T06:53:07.568Z,21.50
2023-08-15T06:55:54.238Z,21.60
2023-08-15T06:58:42.469Z,22.00
2023-08-15T07:01:29.209Z,22.40
2023-08-15T07:04:16.340Z,22.60
2023-08-15T07:07:04.141Z,22.70
2023-08-15T07:09:50.793Z,22.90
2023-08-15T07:12:37.378Z,22.90
2023-08-15T07:15:25.390Z,23.10
2023-08-15T07:18:12.353Z,23.10
2023-08-15T07:21:00.085Z,23.10
2023-08-15T07:23:46.908Z,22.80
2023-08-15T07:26:33.553Z,22.40
2023-08-15T07:29:20.087Z,21.80
2023-08-15T07:32:10.477Z,21.80
2023-08-15T07:34:58.630Z,21.90
2023-08-15T07:37:45.263Z,21.80
2023-08-15T07:40:32.098Z,21.70
2023-08-15T07:43:18.656Z,21.70
2023-08-15T07:46:05.286Z,21.80
2023-08-15T07:48:53.121Z,21.90
2023-08-15T07:51:39.932Z,21.80
2023-08-15T07:54:26.602Z,21.80
2023-08-15T07:57:13.512Z,21.80
2023-08-15T08:00:00.317Z,21.70
2023-08-15T08:02:49.139Z,21.80
2023-08-15T08:05:37.576Z,21.70
2023-08-15T08:08:24.338Z,21.70
2023-08-15T08:11:10.987Z,21.90
2023-08-15T08:13:57.847Z,23.00
2023-08-15T08:16:45.023Z,24.50
2023-08-15T08:19:31.734Z,26.00
2023-08-15T08:22:20.143Z,27.20
2023-08-15T08:25:17.259Z,27.40
2023-08-15T08:28:05.983Z,27.80
2023-08-15T08:30:52.591Z,27.50
2023-08-15T08:33:39.016Z,27.80
2023-08-15T08:36:27.389Z,28.10
2023-08-15T08:39:26.097Z,27.60
2023-08-15T08:42:18.487Z,26.40
2023-08-15T08:45:07.361Z,25.90
2023-08-15T08:47:54.383Z,25.60
2023-08-15T08:50:41.687Z,25.60
2023-08-15T08:53:28.466Z,26.10
2023-08-15T08:56:18.607Z,26.50
2023-08-15T08:59:12.550Z,26.50
2023-08-15T09:01:59.747Z,27.40
2023-08-15T09:04:46.379Z,27.90
2023-08-15T09:07:34.267Z,28.30
2023-08-15T09:10:23.752Z,29.10
2023-08-15T09:13:11.579Z,29.10
2023-08-15T09:16:00.773Z,29.80
2023-08-15T09:18:49.689Z,29.50
2023-08-15T09:21:36.580Z,29.20
2023-08-15T09:24:28.438Z,29.70
2023-08-15T09:27:15.083Z,29.70
2023-08-15T09:30:09.952Z,29.20
2023-08-15T09:32:56.886Z,28.40
2023-08-15T09:35:57.250Z,27.70
2023-08-15T09:38:45.667Z,27.50
2023-08-15T09:41:32.252Z,27.30
2023-08-15T09:44:31.643Z,27.30
2023-08-15T09:47:20.585Z,27.50
2023-08-15T09:50:09.034Z,27.70
2023-08-15T09:52:57.865Z,27.70
2023-08-15T09:55:45.576Z,27.90
2023-08-15T09:58:32.185Z,29.10
2023-08-15T10:01:22.014Z,30.00
2023-08-15T10:04:14.837Z,29.90
2023-08-15T10:07:02.859Z,30.30
2023-08-15T10:09:50.740Z,31.30
2023-08-15T10:12:39.758Z,31.40
2023-08-15T10:15:27.991Z,31.10
2023-08-15T10:18:14.814Z,30.80
2023-08-15T10:21:03.660Z,31.00
2023-08-15T10:23:50.324Z,31.50
2023-08-15T10:26:37.134Z,31.10
2023-08-15T10:29:24.128Z,30.70
2023-08-15T10:32:10.662Z,30.60
2023-08-15T10:35:00.603Z,31.50
2023-08-15T10:37:50.037Z,31.60
2023-08-15T10:40:40.968Z,32.20
2023-08-15T10:43:29.280Z,32.10
2023-08-15T10:46:18.484Z,31.80
2023-08-15T10:49:08.830Z,31.50
2023-08-15T10:52:00.144Z,32.00
2023-08-15T10:54:48.905Z,32.10
2023-08-15T10:57:35.791Z,32.40
2023-08-15T11:00:23.551Z,32.70
2023-08-15T11:03:11.719Z,33.40
2023-08-15T11:06:08.438Z,33.70
2023-08-15T11:08:57.806Z,33.10
2023-08-15T11:11:47.105Z,33.30
2023-08-15T11:14:35.061Z,33.50
2023-08-15T11:17:22.092Z,34.20
2023-08-15T11:20:11.162Z,33.70
2023-08-15T11:22:58.158Z,34.00
2023-08-15T11:25:45.065Z,33.80
2023-08-15T11:28:33.657Z,33.70
2023-08-15T11:31:22.999Z,33.70
2023-08-15T11:34:12.443Z,33.90
2023-08-15T11:36:59.770Z,33.90
2023-08-15T11:39:53.507Z,34.10
2023-08-15T11:42:40.819Z,33.50
2023-08-15T11:45:28.941Z,32.90
2023-08-15T11:48:16.704Z,32.70
2023-08-15T11:51:04.232Z,33.10
2023-08-15T11:53:52.256Z,33.20
2023-08-15T11:56:54.703Z,32.30
2023-08-15T11:59:43.219Z,31.40
2023-08-15T12:02:31.510Z,30.50
2023-08-15T12:05:19.750Z,30.20
2023-08-15T12:08:06.768Z,29.80
2023-08-15T12:10:55.261Z,29.70
2023-08-15T12:13:43.261Z,29.60
2023-08-15T12:16:29.811Z,30.00
2023-08-15T12:19:21.907Z,29.70
2023-08-15T12:22:10.202Z,29.50
2023-08-15T12:24:57.232Z,29.70
2023-08-15T12:27:43.871Z,30.20
2023-08-15T12:30:31.630Z,30.20
2023-08-15T12:33:31.372Z,30.60
2023-08-15T12:36:26.739Z,30.30
2023-08-15T12:39:15.520Z,31.00
2023-08-15T12:42:03.195Z,31.50
2023-08-15T12:44:50.051Z,31.80
2023-08-15T12:47:37.525Z,32.00
2023-08-15T12:50:24.582Z,32.10
2023-08-15T12:53:12.679Z,32.10
2023-08-15T12:55:59.570Z,31.90
2023-08-15T12:58:46.364Z,31.00
2023-08-15T13:01:33.352Z,31.20
2023-08-15T13:04:20.554Z,31.50
2023-08-15T13:07:07.445Z,31.50
2023-08-15T13:09:55.837Z,31.20
2023-08-15T13:12:45.401Z,31.10
2023-08-15T13:15:32.148Z,30.90
2023-08-15T13:18:18.815Z,30.50
2023-08-15T13:21:06.563Z,30.20
2023-08-15T13:23:53.205Z,30.30
2023-08-15T13:26:41.425Z,30.40
2023-08-15T13:29:29.522Z,30.50
2023-08-15T13:32:15.990Z,30.50
2023-08-15T13:35:03.990Z,29.90
2023-08-15T13:37:50.825Z,29.90
2023-08-15T13:40:37.229Z,29.70
2023-08-15T13:43:26.589Z,29.40
2023-08-15T13:46:13.180Z,29.30
2023-08-15T13:48:59.962Z,29.10
2023-08-15T13:51:46.626Z,29.00
2023-08-15T13:54:33.499Z,29.10
2023-08-15T13:57:20.286Z,29.30
2023-08-15T14:00:10.765Z,29.20
2023-08-15T14:02:57.454Z,29.20
2023-08-15T14:05:44.561Z,28.90
2023-08-15T14:08:31.870Z,29.40
2023-08-15T14:11:18.400Z,29.50
2023-08-15T14:14:05.115Z,29.40
2023-08-15T14:16:53.738Z,29.20
2023-08-15T14:19:40.466Z,29.10
2023-08-15T14:22:27.435Z,29.10
2023-08-15T14:25:14.739Z,28.90
2023-08-15T14:28:01.971Z,29.00
2023-08-15T14:30:48.462Z,29.10
2023-08-15T14:33:36.382Z,28.90
2023-08-15T14:36:22.988Z,29.00
2023-08-15T14:39:09.799Z,28.80
2023-08-15T14:41:56.250Z,28.90
2023-08-15T14:44:42.807Z,28.90
2023-08-15T14:47:30.951Z,28.90
2023-08-15T14:50:19.083Z,28.60
2023-08-15T14:53:08.478Z,28.80
2023-08-15T14:55:55.193Z,28.80
2023-08-15T14:58:42.089Z,28.80
2023-08-15T15:01:28.646Z,28.70
2023-08-15T15:04:15.430Z,28.70
2023-08-15T15:07:03.661Z,29.10
2023-08-15T15:09:50.266Z,29.10
2023-08-15T15:12:37.064Z,28.90
2023-08-15T15:15:35.956Z,29.00
2023-08-15T15:18:31.067Z,29.10
2023-08-15T15:21:18.172Z,28.80
2023-08-15T15:24:07.480Z,28.80
2023-08-15T15:26:54.243Z,28.70
2023-08-15T15:29:40.888Z,28.70
2023-08-15T15:32:30.920Z,28.60
2023-08-15T15:35:18.812Z,28.60
2023-08-15T15:38:06.087Z,28.20
2023-08-15T15:40:54.105Z,28.10
2023-08-15T15:43:41.001Z,28.10
2023-08-15T15:46:32.523Z,28.00
2023-08-15T15:49:21.912Z,27.90
2023-08-15T15:52:08.647Z,27.60
2023-08-15T15:54:55.581Z,27.80
2023-08-15T15:57:43.698Z,27.60
2023-08-15T16:00:30.576Z,27.80
2023-08-15T16:03:17.187Z,27.90
2023-08-15T16:06:04.481Z,28.00
2023-08-15T16:08:51.370Z,27.40
2023-08-15T16:11:37.749Z,27.50
2023-08-15T16:14:25.906Z,27.50
2023-08-15T16:17:13.700Z,27.50
2023-08-15T16:20:00.559Z,27.50
2023-08-15T16:22:47.069Z,27.50
2023-08-15T16:25:35.934Z,27.40
2023-08-15T16:28:22.827Z,27.30
2023-08-15T16:31:10.994Z,27.30
2023-08-15T16:33:58.079Z,27.20
2023-08-15T16:36:44.792Z,27.30
2023-08-15T16:39:31.723Z,27.30
2023-08-15T16:42:18.429Z,27.10
2023-08-15T16:45:05.987Z,27.00
2023-08-15T16:47:53.944Z,26.80
2023-08-15T16:50:44.273Z,26.60
2023-08-15T16:53:31.300Z,26.50
2023-08-15T16:56:18.287Z,26.30
2023-08-15T16:59:05.571Z,26.20
2023-08-15T17:01:52.365Z,26.30
2023-08-15T17:04:40.695Z,26.30
2023-08-15T17:07:27.393Z,26.20
2023-08-15T17:10:14.558Z,26.20
2023-08-15T17:13:01.614Z,25.90
2023-08-15T17:15:48.583Z,25.90
2023-08-15T17:18:35.584Z,25.70
2023-08-15T17:21:23.530Z,25.60
2023-08-15T17:24:10.554Z,25.60
2023-08-15T17:26:59.914Z,25.50
2023-08-15T17:29:46.717Z,25.40
2023-08-15T17:32:33.376Z,25.10
2023-08-15T17:35:19.849Z,25.10
2023-08-15T17:38:07.875Z,24.90
2023-08-15T17:40:54.587Z,24.60
2023-08-15T17:43:41.507Z,24.30
2023-08-15T17:46:28.421Z,24.20
2023-08-15T17:49:15.003Z,24.10
2023-08-15T17:52:02.032Z,23.90
2023-08-15T17:54:50.065Z,23.60
2023-08-15T17:57:37.840Z,23.40
2023-08-15T18:00:24.969Z,23.30
2023-08-15T18:03:12.094Z,23.20
2023-08-15T18:05:58.971Z,23.00
2023-08-15T18:08:45.473Z,22.80
2023-08-15T18:11:34.055Z,22.60
2023-08-15T18:14:21.486Z,22.40
2023-08-15T18:17:08.277Z,22.30
2023-08-15T18:19:55.056Z,22.20
2023-08-15T18:22:42.873Z,22.00
2023-08-15T18:25:31.568Z,21.90
2023-08-15T18:28:20.267Z,21.70
2023-08-15T18:31:06.961Z,21.50
2023-08-15T18:33:54.116Z,21.40
2023-08-15T18:36:41.608Z,21.30
2023-08-15T18:39:33.436Z,21.20
2023-08-15T18:42:20.637Z,21.10
2023-08-15T18:45:11.288Z,20.90
2023-08-15T18:47:58.103Z,20.80
2023-08-15T18:50:45.341Z,20.70
2023-08-15T18:53:32.564Z,20.60
2023-08-15T18:56:19.690Z,20.40
2023-08-15T18:59:06.596Z,20.30
2023-08-15T19:01:55.930Z,20.20
2023-08-15T19:04:43.166Z,20.10
2023-08-15T19:07:30.300Z,19.90
2023-08-15T19:10:17.323Z,19.80
2023-08-15T19:13:04.030Z,19.70
2023-08-15T19:15:50.999Z,19.70
2023-08-15T19:18:39.709Z,19.60
2023-08-15T19:21:26.451Z,19.50
2023-08-15T19:24:14.480Z,19.30
2023-08-15T19:27:01.387Z,19.30
2023-08-15T19:29:48.408Z,19.10
2023-08-15T19:32:35.518Z,19.00
2023-08-15T19:35:24.897Z,18.90
2023-08-15T19:38:15.305Z,18.90
2023-08-15T19:41:02.146Z,18.80
2023-08-15T19:43:48.995Z,18.80
2023-08-15T19:46:35.847Z,18.80
2023-08-15T19:49:22.985Z,18.80
2023-08-15T19:52:11.548Z,18.70
2023-08-15T19:54:58.568Z,18.60
2023-08-15T19:57:45.327Z,18.60
2023-08-15T20:00:32.474Z,18.50
2023-08-15T20:03:19.410Z,18.50
2023-08-15T20:06:06.511Z,18.40
2023-08-15T20:08:54.332Z,18.40
2023-08-15T20:11:43.572Z,18.40
2023-08-15T20:14:32.683Z,18.50
2023-08-15T20:17:19.340Z,18.50
2023-08-15T20:20:07.231Z,18.40
2023-08-15T20:22:54.219Z,18.40
2023-08-15T20:25:42.149Z,18.40
2023-08-15T20:28:29.166Z,18.40
2023-08-15T20:31:18.800Z,18.40
2023-08-15T20:34:05.553Z,18.30
2023-08-15T20:36:52.802Z,18.30
2023-08-15T20:39:39.688Z,18.30
2023-08-15T20:42:27.797Z,18.30
2023-08-15T20:45:14.933Z,18.30
2023-08-15T20:48:01.963Z,18.20
2023-08-15T20:50:48.351Z,18.30
2023-08-15T20:53:35.197Z,18.20
2023-08-15T20:56:21.732Z,18.20
2023-08-15T20:59:09.587Z,18.20
2023-08-15T21:01:56.298Z,18.20
2023-08-15T21:04:43.249Z,18.20
2023-08-15T21:07:30.148Z,18.20
2023-08-15T21:10:17.160Z,18.20
2023-08-15T21:13:04.634Z,18.30
2023-08-15T21:15:52.921Z,18.20
2023-08-15T21:18:39.387Z,18.20
2023-08-15T21:21:25.952Z,18.20
2023-08-15T21:24:12.628Z,18.10
2023-08-15T21:26:59.177Z,18.20
2023-08-15T21:29:45.834Z,18.20
2023-08-15T21:32:34.225Z,18.20
2023-08-15T21:35:20.817Z,18.20
2023-08-15T21:38:07.437Z,18.20
2023-08-15T21:40:53.887Z,18.10
2023-08-15T21:43:40.581Z,18.20
2023-08-15T21:46:27.249Z,18.00
2023-08-15T21:49:15.280Z,18.00
2023-08-15T21:52:03.171Z,18.00
2023-08-15T21:54:50.023Z,18.00
2023-08-15T21:57:36.896Z,17.90
2023-08-15T22:00:23.441Z,17.80
2023-08-15T22:03:10.201Z,17.70
2023-08-15T22:05:58.308Z,17.70
2023-08-15T22:08:45.246Z,17.60
2023-08-15T22:11:32.102Z,17.60
2023-08-15T22:14:19.841Z,17.60
2023-08-15T22:17:06.532Z,17.50
2023-08-15T22:19:53.650Z,17.40
2023-08-15T22:22:43.805Z,17.30
2023-08-15T22:25:30.688Z,17.30
2023-08-15T22:28:18.015Z,17.20
2023-08-15T22:31:04.650Z,17.20
2023-08-15T22:33:51.224Z,17.10
2023-08-15T22:36:37.715Z,17.10
2023-08-15T22:39:25.616Z,17.00
2023-08-15T22:42:12.820Z,16.90
2023-08-15T22:44:59.601Z,16.90
2023-08-15T22:47:46.443Z,16.90
2023-08-15T22:50:32.958Z,16.80
2023-08-15T22:53:19.506Z,16.80
2023-08-15T22:56:10.192Z,16.70
2023-08-15T22:58:56.694Z,16.60
2023-08-15T23:01:43.117Z,16.60
2023-08-15T23:04:30.111Z,16.50
2023-08-15T23:07:16.878Z,16.40
2023-08-15T23:10:04.243Z,16.40
2023-08-15T23:12:52.343Z,16.40
2023-08-15T23:15:39.383Z,16.30
2023-08-15T23:18:26.470Z,16.30
2023-08-15T23:21:15.531Z,16.30
2023-08-15T23:24:02.240Z,16.20
2023-08-15T23:26:48.672Z,16.10
2023-08-15T23:29:36.609Z,16.10
2023-08-15T23:32:23.170Z,16.00
2023-08-15T23:35:13.602Z,16.00
2023-08-15T23:38:01.587Z,16.00
2023-08-15T23:40:48.112Z,16.00
2023-08-15T23:43:34.677Z,15.90
2023-08-15T23:46:23.151Z,15.90
2023-08-15T23:49:09.547Z,15.90
2023-08-15T23:51:56.050Z,15.80
2023-08-15T23:54:58.611Z,15.80
2023-08-15T23:57:45.540Z,15.80
